createdAt,value
2018-06-28T00:01:36.710Z,1.70
2018-06-28T00:04:05.973Z,1.93
2018-06-28T00:06:34.176Z,2.00
2018-06-28T00:09:02.907Z,1.70
2018-06-28T00:11:31.333Z,2.20
2018-06-28T00:14:07.547Z,2.17
2018-06-28T00:16:36.098Z,1.90
2018-06-28T00:19:04.751Z,1.83
2018-06-28T00:21:33.267Z,2.30
2018-06-28T00:24:01.686Z,2.07
2018-06-28T00:26:29.958Z,1.77
2018-06-28T00:28:58.171Z,2.37
2018-06-28T00:31:26.469Z,2.20
2018-06-28T00:33:55.182Z,2.30
2018-06-28T00:36:23.611Z,4.00
2018-06-28T00:38:52.002Z,2.07
2018-06-28T00:41:20.306Z,2.30
2018-06-28T00:43:48.945Z,2.20
2018-06-28T00:46:17.215Z,2.20
2018-06-28T00:48:45.931Z,2.37
2018-06-28T00:51:14.674Z,2.53
2018-06-28T00:53:43.854Z,2.00
2018-06-28T00:56:12.445Z,2.17
2018-06-28T00:58:40.893Z,2.17
2018-06-28T01:01:09.763Z,1.90
2018-06-28T01:03:38.178Z,2.80
2018-06-28T01:06:06.598Z,2.17
2018-06-28T01:08:35.411Z,2.50
2018-06-28T01:11:08.458Z,3.37
2018-06-28T01:13:37.564Z,2.30
2018-06-28T01:16:06.011Z,2.50
2018-06-28T01:18:34.435Z,2.27
2018-06-28T01:21:03.631Z,2.23
2018-06-28T01:23:32.315Z,2.30
2018-06-28T01:26:00.869Z,2.50
2018-06-28T01:28:29.294Z,2.33
2018-06-28T01:30:58.563Z,2.67
2018-06-28T01:33:27.135Z,2.60
2018-06-28T01:35:55.413Z,2.00
2018-06-28T01:38:23.719Z,2.80
2018-06-28T01:40:52.135Z,2.40
2018-06-28T01:43:37.157Z,2.80
2018-06-28T01:46:06.631Z,2.40
2018-06-28T01:48:35.249Z,2.50
2018-06-28T01:51:03.737Z,2.77
2018-06-28T01:53:36.526Z,2.63
2018-06-28T01:56:04.962Z,2.50
2018-06-28T01:58:33.434Z,2.40
2018-06-28T02:01:01.935Z,2.90
2018-06-28T02:03:30.252Z,2.77
2018-06-28T02:05:58.565Z,2.77
2018-06-28T02:08:26.823Z,3.00
2018-06-28T02:10:55.223Z,2.23
2018-06-28T02:13:23.600Z,2.50
2018-06-28T02:15:52.087Z,3.67
2018-06-28T02:18:20.695Z,2.20
2018-06-28T02:20:49.768Z,2.50
2018-06-28T02:23:18.189Z,2.73
2018-06-28T02:25:46.610Z,2.90
2018-06-28T02:28:19.679Z,2.60
2018-06-28T02:30:48.324Z,2.43
2018-06-28T02:33:17.449Z,2.13
2018-06-28T02:35:51.955Z,3.37
2018-06-28T02:38:21.356Z,2.77
2018-06-28T02:40:50.887Z,3.63
2018-06-28T02:43:20.276Z,2.80
2018-06-28T02:45:48.970Z,2.90
2018-06-28T02:48:17.765Z,2.43
2018-06-28T02:50:46.235Z,2.83
2018-06-28T02:53:14.882Z,3.30
2018-06-28T02:55:43.171Z,3.20
2018-06-28T02:58:11.595Z,3.13
2018-06-28T03:00:40.192Z,3.13
2018-06-28T03:03:08.666Z,2.43
2018-06-28T03:05:37.137Z,2.80
2018-06-28T03:08:05.791Z,2.90
2018-06-28T03:10:34.268Z,3.07
2018-06-28T03:13:04.277Z,2.97
2018-06-28T03:15:34.298Z,3.03
2018-06-28T03:18:03.129Z,3.52
2018-06-28T03:20:31.991Z,3.42
2018-06-28T03:23:00.901Z,3.13
2018-06-28T03:25:29.259Z,2.77
2018-06-28T03:27:57.655Z,3.30
2018-06-28T03:30:26.664Z,3.37
2018-06-28T03:32:55.090Z,3.30
2018-06-28T03:35:23.801Z,2.93
2018-06-28T03:37:52.307Z,2.60
2018-06-28T03:40:21.462Z,4.07
2018-06-28T03:42:49.983Z,3.30
2018-06-28T03:45:18.273Z,2.80
2018-06-28T03:47:46.598Z,3.20
2018-06-28T03:50:14.794Z,4.43
2018-06-28T03:52:43.148Z,3.77
2018-06-28T03:55:11.478Z,3.13
2018-06-28T03:57:39.916Z,2.87
2018-06-28T04:00:08.234Z,3.70
2018-06-28T04:02:36.680Z,2.85
2018-06-28T04:05:05.173Z,2.87
2018-06-28T04:07:33.345Z,2.40
2018-06-28T04:10:01.568Z,3.13
2018-06-28T04:12:29.883Z,2.90
2018-06-28T04:14:58.811Z,3.60
2018-06-28T04:17:27.483Z,3.03
2018-06-28T04:19:55.834Z,3.07
2018-06-28T04:22:29.122Z,3.83
2018-06-28T04:24:58.632Z,3.53
2018-06-28T04:27:27.730Z,3.03
2018-06-28T04:29:56.036Z,3.47
2018-06-28T04:32:24.923Z,3.50
2018-06-28T04:34:53.227Z,13.00
2018-06-28T04:37:21.507Z,4.20
2018-06-28T04:39:49.797Z,3.67
2018-06-28T04:42:18.183Z,3.90
2018-06-28T04:44:46.447Z,3.60
2018-06-28T04:47:15.175Z,2.93
2018-06-28T04:49:43.738Z,3.60
2018-06-28T04:52:12.197Z,3.90
2018-06-28T04:54:40.602Z,3.75
2018-06-28T04:57:09.096Z,3.95
2018-06-28T04:59:37.336Z,4.05
2018-06-28T05:02:06.483Z,4.40
2018-06-28T05:04:34.914Z,5.12
2018-06-28T05:07:03.444Z,4.20
2018-06-28T05:09:32.463Z,4.60
2018-06-28T05:12:01.595Z,4.10
2018-06-28T05:14:30.586Z,3.57
2018-06-28T05:16:59.117Z,4.07
2018-06-28T05:19:28.364Z,4.07
2018-06-28T05:21:56.744Z,5.03
2018-06-28T05:24:25.404Z,3.90
2018-06-28T05:26:54.421Z,3.97
2018-06-28T05:29:22.851Z,3.93
2018-06-28T05:31:51.769Z,3.40
2018-06-28T05:34:23.557Z,6.60
2018-06-28T05:36:51.947Z,3.30
2018-06-28T05:39:20.327Z,3.47
2018-06-28T05:41:48.799Z,3.30
2018-06-28T05:44:17.171Z,3.17
2018-06-28T05:46:45.690Z,3.63
2018-06-28T05:49:14.138Z,5.10
2018-06-28T05:51:43.116Z,3.23
2018-06-28T05:54:11.651Z,3.37
2018-06-28T05:56:45.489Z,2.87
2018-06-28T05:59:14.005Z,2.30
2018-06-28T06:01:42.344Z,3.37
2018-06-28T06:04:10.640Z,2.80
2018-06-28T06:06:39.083Z,2.57
2018-06-28T06:09:09.343Z,2.07
2018-06-28T06:11:38.187Z,2.43
2018-06-28T06:14:06.770Z,2.60
2018-06-28T06:16:36.468Z,2.63
2018-06-28T06:19:06.097Z,2.40
2018-06-28T06:21:35.423Z,2.73
2018-06-28T06:24:04.133Z,2.30
2018-06-28T06:26:32.606Z,2.80
2018-06-28T06:29:01.179Z,2.60
2018-06-28T06:31:29.671Z,3.10
2018-06-28T06:33:58.021Z,1.70
2018-06-28T06:36:26.605Z,2.47
2018-06-28T06:38:58.832Z,2.00
2018-06-28T06:41:27.340Z,2.20
2018-06-28T06:43:55.732Z,3.10
2018-06-28T06:46:23.917Z,3.50
2018-06-28T06:48:52.415Z,2.50
2018-06-28T06:51:20.949Z,3.20
2018-06-28T06:53:49.505Z,2.73
2018-06-28T06:56:18.102Z,1.90
2018-06-28T06:58:46.508Z,2.40
2018-06-28T07:01:14.886Z,3.00
2018-06-28T07:03:43.268Z,2.33
2018-06-28T07:06:11.869Z,3.03
2018-06-28T07:08:40.742Z,2.80
2018-06-28T07:11:09.193Z,2.33
2018-06-28T07:13:37.405Z,2.30
2018-06-28T07:16:06.368Z,2.50
2018-06-28T07:18:35.361Z,2.83
2018-06-28T07:21:04.059Z,2.80
2018-06-28T07:23:32.464Z,2.20
2018-06-28T07:26:00.942Z,2.40
2018-06-28T07:28:29.566Z,2.43
2018-06-28T07:30:58.828Z,2.80
2018-06-28T07:33:27.169Z,3.27
2018-06-28T07:35:55.460Z,3.00
2018-06-28T07:38:23.803Z,3.27
2018-06-28T07:40:52.137Z,2.50
2018-06-28T07:43:20.620Z,4.10
2018-06-28T07:45:49.040Z,2.63
2018-06-28T07:48:19.496Z,5.63
2018-06-28T07:50:47.844Z,3.30
2018-06-28T07:53:16.344Z,3.47
2018-06-28T07:55:45.448Z,3.67
2018-06-28T07:58:14.586Z,3.20
2018-06-28T08:00:43.827Z,3.40
2018-06-28T08:03:12.080Z,3.37
2018-06-28T08:05:40.783Z,3.30
2018-06-28T08:08:09.079Z,2.67
2018-06-28T08:10:37.540Z,3.23
2018-06-28T08:13:05.883Z,3.73
2018-06-28T08:15:34.478Z,3.57
2018-06-28T08:18:03.373Z,3.60
2018-06-28T08:20:32.853Z,4.43
2018-06-28T08:23:01.886Z,3.60
2018-06-28T08:25:30.257Z,4.80
2018-06-28T08:27:58.527Z,4.00
2018-06-28T08:30:27.069Z,4.23
2018-06-28T08:32:55.397Z,4.10
2018-06-28T08:35:23.672Z,3.67
2018-06-28T08:37:51.962Z,3.90
2018-06-28T08:40:20.385Z,4.00
2018-06-28T08:42:49.062Z,3.70
2018-06-28T08:45:17.358Z,3.67
2018-06-28T08:47:45.772Z,3.43
2018-06-28T08:50:14.014Z,2.93
2018-06-28T08:52:42.293Z,3.50
2018-06-28T08:55:10.810Z,3.20
2018-06-28T08:57:39.097Z,3.50
2018-06-28T09:00:08.734Z,5.53
2018-06-28T09:02:37.116Z,3.07
2018-06-28T09:05:05.879Z,3.57
2018-06-28T09:07:41.770Z,3.13
2018-06-28T09:10:09.976Z,3.47
2018-06-28T09:12:38.243Z,3.70
2018-06-28T09:15:06.634Z,2.80
2018-06-28T09:17:35.759Z,3.60
2018-06-28T09:20:04.552Z,3.33
2018-06-28T09:22:35.272Z,3.43
2018-06-28T09:25:04.615Z,2.80
2018-06-28T09:27:33.337Z,3.27
2018-06-28T09:30:01.878Z,2.60
2018-06-28T09:32:30.392Z,4.03
2018-06-28T09:34:58.774Z,3.23
2018-06-28T09:37:27.010Z,2.50
2018-06-28T09:39:55.576Z,3.13
2018-06-28T09:42:23.901Z,3.57
2018-06-28T09:44:52.991Z,3.30
2018-06-28T09:47:21.243Z,2.67
2018-06-28T09:49:49.754Z,3.93
2018-06-28T09:52:18.091Z,3.60
2018-06-28T09:54:46.431Z,2.73
2018-06-28T09:57:14.595Z,3.50
2018-06-28T09:59:43.170Z,3.40
2018-06-28T10:02:11.634Z,3.93
2018-06-28T10:04:40.808Z,2.90
2018-06-28T10:07:09.210Z,2.83
2018-06-28T10:09:37.729Z,3.70
2018-06-28T10:12:06.199Z,3.60
2018-06-28T10:14:34.614Z,3.33
2018-06-28T10:17:02.990Z,3.20
2018-06-28T10:19:31.308Z,3.30
2018-06-28T10:22:00.044Z,3.77
2018-06-28T10:24:28.370Z,3.70
2018-06-28T10:26:57.078Z,3.53
2018-06-28T10:29:25.260Z,3.33
2018-06-28T10:31:53.507Z,4.00
2018-06-28T10:34:22.417Z,2.90
2018-06-28T10:36:50.722Z,8.23
2018-06-28T10:39:19.083Z,3.10
2018-06-28T10:41:47.487Z,3.13
2018-06-28T10:44:15.669Z,2.93
2018-06-28T10:46:44.258Z,3.53
2018-06-28T10:49:12.766Z,3.00
2018-06-28T10:51:41.174Z,4.53
2018-06-28T10:54:09.527Z,3.30
2018-06-28T10:56:42.306Z,3.17
2018-06-28T10:59:10.779Z,3.07
2018-06-28T11:01:39.810Z,2.60
2018-06-28T11:04:08.150Z,3.10
2018-06-28T11:06:36.389Z,3.87
2018-06-28T11:09:08.476Z,2.93
2018-06-28T11:11:38.253Z,2.90
2018-06-28T11:14:06.727Z,3.20
2018-06-28T11:16:35.080Z,3.53
2018-06-28T11:19:03.458Z,3.33
2018-06-28T11:21:32.117Z,3.37
2018-06-28T11:24:01.371Z,3.50
2018-06-28T11:26:29.753Z,3.17
2018-06-28T11:28:57.994Z,3.63
2018-06-28T11:31:26.202Z,3.20
2018-06-28T11:33:54.853Z,4.50
2018-06-28T11:36:23.174Z,3.57
2018-06-28T11:38:51.271Z,3.00
2018-06-28T11:41:19.616Z,3.40
2018-06-28T11:43:47.888Z,3.10
2018-06-28T11:46:16.339Z,2.80
2018-06-28T11:48:45.138Z,3.73
2018-06-28T11:51:14.243Z,5.40
2018-06-28T11:53:42.445Z,3.27
2018-06-28T11:56:10.704Z,3.17
2018-06-28T11:58:39.073Z,2.93
2018-06-28T12:01:07.581Z,3.37
2018-06-28T12:03:35.915Z,3.60
2018-06-28T12:06:04.659Z,3.63
2018-06-28T12:08:32.881Z,3.80
2018-06-28T12:11:01.180Z,3.90
2018-06-28T12:13:30.306Z,3.57
2018-06-28T12:15:59.504Z,3.43
2018-06-28T12:18:27.863Z,3.50
2018-06-28T12:20:56.158Z,3.73
2018-06-28T12:23:24.571Z,3.33
2018-06-28T12:25:53.107Z,3.73
2018-06-28T12:28:22.180Z,4.77
2018-06-28T12:30:50.515Z,4.23
2018-06-28T12:33:18.774Z,3.30
2018-06-28T12:35:51.897Z,3.60
2018-06-28T12:38:20.319Z,3.60
2018-06-28T12:40:48.770Z,3.80
2018-06-28T12:43:17.090Z,3.43
2018-06-28T12:45:46.017Z,3.40
2018-06-28T12:48:15.404Z,3.37
2018-06-28T12:50:44.584Z,3.70
2018-06-28T12:53:13.074Z,4.00
2018-06-28T12:56:20.495Z,3.23
2018-06-28T12:58:50.502Z,3.33
2018-06-28T13:01:18.995Z,4.23
2018-06-28T13:03:48.200Z,3.63
2018-06-28T13:06:17.258Z,3.67
2018-06-28T13:08:46.589Z,4.00
2018-06-28T13:11:15.302Z,4.20
2018-06-28T13:13:43.918Z,3.50
2018-06-28T13:16:14.323Z,3.87
2018-06-28T13:18:43.648Z,3.57
2018-06-28T13:21:13.327Z,4.10
2018-06-28T13:23:41.595Z,3.73
2018-06-28T13:26:12.992Z,3.57
2018-06-28T13:28:42.210Z,3.27
2018-06-28T13:31:11.196Z,3.77
2018-06-28T13:33:40.498Z,3.40
2018-06-28T13:36:08.847Z,3.30
2018-06-28T13:38:37.230Z,4.03
2018-06-28T13:41:06.077Z,3.70
2018-06-28T13:43:34.169Z,3.97
2018-06-28T13:46:02.708Z,4.40
2018-06-28T13:48:31.346Z,3.87
2018-06-28T13:51:06.946Z,3.97
2018-06-28T13:53:37.225Z,4.07
2018-06-28T13:56:05.606Z,4.30
2018-06-28T13:58:34.022Z,4.00
2018-06-28T14:01:02.797Z,4.20
2018-06-28T14:03:31.074Z,4.97
2018-06-28T14:06:00.337Z,3.60
2018-06-28T14:08:28.682Z,4.40
2018-06-28T14:10:57.353Z,4.20
2018-06-28T14:13:26.043Z,4.23
2018-06-28T14:15:54.908Z,4.57
2018-06-28T14:18:23.593Z,3.77
2018-06-28T14:20:52.972Z,4.17
2018-06-28T14:23:21.437Z,4.10
2018-06-28T14:25:55.328Z,3.27
2018-06-28T14:28:25.010Z,3.73
2018-06-28T14:30:53.395Z,3.80
2018-06-28T14:33:21.639Z,8.63
2018-06-28T14:35:50.542Z,2.50
2018-06-28T14:38:23.797Z,3.93
2018-06-28T14:40:52.423Z,2.80
2018-06-28T14:43:20.830Z,3.17
2018-06-28T14:45:49.401Z,3.30
2018-06-28T14:48:18.283Z,3.30
2018-06-28T14:50:46.645Z,2.50
2018-06-28T14:53:15.187Z,2.90
2018-06-28T14:55:43.891Z,3.17
2018-06-28T14:58:12.364Z,3.17
2018-06-28T15:00:41.443Z,2.77
2018-06-28T15:03:09.874Z,2.70
2018-06-28T15:05:38.210Z,3.37
2018-06-28T15:08:06.624Z,8.37
2018-06-28T15:10:35.418Z,3.30
2018-06-28T15:13:03.859Z,3.20
2018-06-28T15:15:32.599Z,3.20
2018-06-28T15:18:00.962Z,3.77
2018-06-28T15:20:30.124Z,3.70
2018-06-28T15:22:58.679Z,3.47
2018-06-28T15:25:27.036Z,3.60
2018-06-28T15:27:56.333Z,3.70
2018-06-28T15:30:24.810Z,3.30
2018-06-28T15:32:54.025Z,3.27
2018-06-28T15:35:22.841Z,3.20
2018-06-28T15:37:51.470Z,3.40
2018-06-28T15:40:19.878Z,3.93
2018-06-28T15:42:48.247Z,2.97
2018-06-28T15:45:16.588Z,3.20
2018-06-28T15:47:45.265Z,3.43
2018-06-28T15:50:13.749Z,2.80
2018-06-28T15:52:46.186Z,4.20
2018-06-28T15:55:15.383Z,3.50
2018-06-28T15:57:44.062Z,4.30
2018-06-28T16:00:12.762Z,2.70
2018-06-28T16:02:41.275Z,3.10
2018-06-28T16:05:09.778Z,2.80
2018-06-28T16:07:39.472Z,3.07
2018-06-28T16:10:08.856Z,3.00
2018-06-28T16:12:38.624Z,3.10
2018-06-28T16:15:06.962Z,3.43
2018-06-28T16:17:35.615Z,3.00
2018-06-28T16:20:04.329Z,3.10
2018-06-28T16:22:32.708Z,3.50
2018-06-28T16:25:01.215Z,3.73
2018-06-28T16:27:29.761Z,3.20
2018-06-28T16:29:58.170Z,3.20
2018-06-28T16:32:27.535Z,3.13
2018-06-28T16:34:56.150Z,3.93
2018-06-28T16:37:24.403Z,2.97
2018-06-28T16:39:52.691Z,2.80
2018-06-28T16:42:20.979Z,3.77
2018-06-28T16:44:50.343Z,3.70
2018-06-28T16:47:18.793Z,2.37
2018-06-28T16:49:47.269Z,3.80
2018-06-28T16:52:15.929Z,2.43
2018-06-28T16:54:44.292Z,3.27
2018-06-28T16:57:12.639Z,3.40
2018-06-28T16:59:41.029Z,2.93
2018-06-28T17:02:09.910Z,3.43
2018-06-28T17:04:38.263Z,3.20
2018-06-28T17:07:06.574Z,3.40
2018-06-28T17:09:34.973Z,2.93
2018-06-28T17:12:03.343Z,3.23
2018-06-28T17:14:32.068Z,3.50
2018-06-28T17:17:00.430Z,2.90
2018-06-28T17:19:28.832Z,3.97
2018-06-28T17:21:57.319Z,4.17
2018-06-28T17:24:25.611Z,3.77
2018-06-28T17:26:54.351Z,4.50
2018-06-28T17:29:24.131Z,4.40
2018-06-28T17:31:53.029Z,5.53
2018-06-28T17:34:21.510Z,4.03
2018-06-28T17:36:50.393Z,9.00
2018-06-28T17:39:18.837Z,4.57
2018-06-28T17:41:47.087Z,6.93
2018-06-28T17:44:15.577Z,4.17
2018-06-28T17:46:43.995Z,4.80
2018-06-28T17:49:12.416Z,6.30
2018-06-28T17:51:40.662Z,4.10
2018-06-28T17:54:09.031Z,5.83
2018-06-28T17:56:37.706Z,5.67
2018-06-28T17:59:10.335Z,6.00
2018-06-28T18:01:38.782Z,6.43
2018-06-28T18:04:07.302Z,5.77
2018-06-28T18:06:35.729Z,6.83
2018-06-28T18:09:07.366Z,6.57
2018-06-28T18:11:36.576Z,6.43
2018-06-28T18:14:05.306Z,7.07
2018-06-28T18:16:34.777Z,7.30
2018-06-28T18:19:03.420Z,8.57
2018-06-28T18:21:31.678Z,7.93
2018-06-28T18:24:00.550Z,7.00
2018-06-28T18:26:29.034Z,9.00
2018-06-28T18:28:57.581Z,6.70
2018-06-28T18:31:25.990Z,7.10
2018-06-28T18:33:54.519Z,7.73
2018-06-28T18:36:23.133Z,7.63
2018-06-28T18:38:51.577Z,7.70
2018-06-28T18:41:19.977Z,10.70
2018-06-28T18:43:48.415Z,7.53
2018-06-28T18:46:17.442Z,5.77
2018-06-28T18:48:45.776Z,6.27
2018-06-28T18:51:14.163Z,6.70
2018-06-28T18:53:42.803Z,5.80
2018-06-28T18:56:11.631Z,6.13
2018-06-28T18:58:40.071Z,7.33
2018-06-28T19:01:08.717Z,6.53
2018-06-28T19:03:37.990Z,6.53
2018-06-28T19:06:06.382Z,7.17
2018-06-28T19:08:35.033Z,11.10
2018-06-28T19:11:03.830Z,6.00
2018-06-28T19:13:34.253Z,6.13
2018-06-28T19:16:08.327Z,6.13
2018-06-28T19:18:36.991Z,6.13
2018-06-28T19:21:12.046Z,6.77
2018-06-28T19:23:46.344Z,8.93
2018-06-28T19:26:15.019Z,5.97
2018-06-28T19:28:44.399Z,8.50
2018-06-28T19:31:18.637Z,5.90
2018-06-28T19:33:47.224Z,5.97
2018-06-28T19:36:16.705Z,6.07
2018-06-28T19:38:51.176Z,7.33
2018-06-28T19:41:25.470Z,7.57
2018-06-28T19:43:53.943Z,6.10
2018-06-28T19:46:23.266Z,9.37
2018-06-28T19:48:52.034Z,6.10
2018-06-28T19:51:25.927Z,6.93
2018-06-28T19:53:54.596Z,7.10
2018-06-28T19:56:23.707Z,6.57
2018-06-28T19:58:52.742Z,7.93
2018-06-28T20:01:26.853Z,6.33
2018-06-28T20:04:01.317Z,6.57
2018-06-28T20:06:30.026Z,7.37
2018-06-28T20:08:58.759Z,6.80
2018-06-28T20:11:27.490Z,6.37
2018-06-28T20:14:01.710Z,6.67
2018-06-28T20:16:36.130Z,6.97
2018-06-28T20:19:10.275Z,5.93
2018-06-28T20:21:38.886Z,6.43
2018-06-28T20:24:07.311Z,6.77
2018-06-28T20:26:41.328Z,7.00
2018-06-28T20:29:15.358Z,6.53
2018-06-28T20:31:49.124Z,6.80
2018-06-28T20:34:17.425Z,7.00
2018-06-28T20:36:46.103Z,7.07
2018-06-28T20:39:14.297Z,7.30
2018-06-28T20:41:42.626Z,7.33
2018-06-28T20:44:10.932Z,7.00
2018-06-28T20:46:39.469Z,7.73
2018-06-28T20:49:07.947Z,8.07
2018-06-28T20:51:36.367Z,7.23
2018-06-28T20:54:04.728Z,7.50
2018-06-28T20:56:33.041Z,7.10
2018-06-28T20:59:01.433Z,7.83
2018-06-28T21:01:29.998Z,8.87
2018-06-28T21:03:58.247Z,7.37
2018-06-28T21:06:26.802Z,7.97
2018-06-28T21:08:55.211Z,7.43
2018-06-28T21:11:23.496Z,8.33
2018-06-28T21:13:52.469Z,6.90
2018-06-28T21:16:20.743Z,8.17
2018-06-28T21:18:49.038Z,6.83
2018-06-28T21:21:17.333Z,6.50
2018-06-28T21:23:46.208Z,7.70
2018-06-28T21:26:14.566Z,6.90
2018-06-28T21:28:42.778Z,6.77
2018-06-28T21:31:11.743Z,7.40
2018-06-28T21:33:40.268Z,6.97
2018-06-28T21:36:08.850Z,7.60
2018-06-28T21:41:30.590Z,7.53
2018-06-28T21:43:58.821Z,7.70
2018-06-28T21:47:04.878Z,7.20
2018-06-28T21:49:33.147Z,8.00
2018-06-28T21:52:01.435Z,7.37
2018-06-28T21:54:29.774Z,7.60
2018-06-28T21:56:58.024Z,7.80
2018-06-28T21:59:26.306Z,7.60
2018-06-28T22:01:55.133Z,7.17
2018-06-28T22:04:27.278Z,7.63
2018-06-28T22:06:57.625Z,7.90
2018-06-28T22:09:25.979Z,7.30
2018-06-28T22:11:54.260Z,7.60
2018-06-28T22:14:22.495Z,8.07
2018-06-28T22:16:50.676Z,8.17
2018-06-28T22:19:19.093Z,8.33
2018-06-28T22:21:47.390Z,8.00
2018-06-28T22:24:15.544Z,8.97
2018-06-28T22:26:43.939Z,7.90
2018-06-28T22:29:12.122Z,8.30
2018-06-28T22:31:40.286Z,8.03
2018-06-28T22:34:08.745Z,8.33
2018-06-28T22:36:37.167Z,8.70
2018-06-28T22:39:09.325Z,7.70
2018-06-28T22:41:37.702Z,8.57
2018-06-28T22:44:05.947Z,7.47
2018-06-28T22:46:34.557Z,8.90
2018-06-28T22:49:03.005Z,9.40
2018-06-28T22:51:31.230Z,7.87
2018-06-28T22:53:59.968Z,7.90
2018-06-28T22:56:28.265Z,7.63
2018-06-28T22:58:56.440Z,8.57
2018-06-28T23:01:24.676Z,8.40
2018-06-28T23:03:52.858Z,8.63
2018-06-28T23:06:21.014Z,8.30
2018-06-28T23:08:49.324Z,9.77
2018-06-28T23:11:17.525Z,8.40
2018-06-28T23:13:45.806Z,9.33
2018-06-28T23:16:13.961Z,8.97
2018-06-28T23:18:42.160Z,10.03
2018-06-28T23:21:10.313Z,8.57
2018-06-28T23:23:38.499Z,9.33
2018-06-28T23:26:06.675Z,9.10
2018-06-28T23:28:34.808Z,9.90
2018-06-28T23:31:03.288Z,8.87
2018-06-28T23:33:31.509Z,9.23
2018-06-28T23:35:59.690Z,9.93
2018-06-28T23:38:27.894Z,9.73
2018-06-28T23:40:56.120Z,9.80
2018-06-28T23:43:24.267Z,9.27
2018-06-28T23:45:52.464Z,9.30
2018-06-28T23:48:20.598Z,9.37
2018-06-28T23:50:48.979Z,8.80
2018-06-28T23:53:16.901Z,8.90
2018-06-28T23:55:45.159Z,9.43
2018-06-28T23:58:13.316Z,9.57
